Time;durP1;ratioP1;P1;durP2;ratioP2;P2;SDS_P1;SDS_P2;PMS_P1;PMS_P2;Temp;Humidity;BMP_temperature;BMP_pressure;BME280_temperature;BME280_humidity;BME280_pressure;Samples;Min_cycle;Max_cycle;Signal;HPM_P1;HPM_P2
2021/07/30 00:02:15;;;;;;;11.07;4.57;;;14.70;99.90;;;;;;6300586;22;20524;-58
2021/07/30 00:04:40;;;;;;;11.68;4.60;;;14.60;99.90;;;;;;6299235;22;20003;-60
2021/07/30 00:07:06;;;;;;;7.88;4.13;;;14.60;99.90;;;;;;6298129;22;20022;-56
2021/07/30 00:09:31;;;;;;;9.02;4.32;;;14.70;99.90;;;;;;6298530;22;19995;-55
2021/07/30 00:11:57;;;;;;;13.07;3.88;;;14.70;99.90;;;;;;6302160;22;20000;-58
2021/07/30 00:14:22;;;;;;;11.50;5.10;;;14.70;99.90;;;;;;6298347;22;20335;-58
2021/07/30 00:16:48;;;;;;;12.55;4.72;;;14.70;99.90;;;;;;6298917;22;20010;-60
2021/07/30 00:19:13;;;;;;;7.72;3.90;;;14.70;99.90;;;;;;6299488;22;20094;-60
2021/07/30 00:21:39;;;;;;;12.70;4.55;;;14.60;99.90;;;;;;6298673;22;20006;-55
2021/07/30 00:24:05;;;;;;;18.42;4.65;;;14.60;99.90;;;;;;6298878;22;20000;-58
2021/07/30 00:26:30;;;;;;;10.70;4.63;;;14.60;99.90;;;;;;6298993;22;20011;-58
2021/07/30 00:28:56;;;;;;;11.52;4.72;;;14.60;99.90;;;;;;6299717;22;20007;-60
2021/07/30 00:31:21;;;;;;;13.07;4.95;;;14.70;99.90;;;;;;6300376;22;20006;-58
2021/07/30 00:33:47;;;;;;;15.38;4.75;;;14.60;99.90;;;;;;6301542;22;20427;-60
2021/07/30 00:36:13;;;;;;;13.20;4.53;;;14.70;99.90;;;;;;6300385;22;20007;-58
2021/07/30 00:38:38;;;;;;;11.75;4.38;;;14.80;99.90;;;;;;6300620;22;20009;-53
2021/07/30 00:41:04;;;;;;;13.43;4.43;;;14.80;99.90;;;;;;6300891;22;20034;-60
2021/07/30 00:43:30;;;;;;;11.20;4.22;;;14.80;99.90;;;;;;6301295;22;20006;-57
2021/07/30 00:45:57;;;;;;;17.48;4.80;;;14.80;99.90;;;;;;6300229;22;20072;-59
2021/07/30 00:48:24;;;;;;;11.80;4.53;;;14.90;99.90;;;;;;6301325;22;20015;-55
2021/07/30 00:50:51;;;;;;;9.55;4.65;;;14.90;99.90;;;;;;6300778;22;20014;-58
2021/07/30 00:53:17;;;;;;;9.20;4.53;;;14.90;99.90;;;;;;6300584;22;19999;-56
2021/07/30 00:55:44;;;;;;;9.55;4.13;;;14.90;99.90;;;;;;6304445;22;20003;-57
2021/07/30 00:58:10;;;;;;;11.32;4.45;;;14.90;99.90;;;;;;6299420;22;20029;-54
2021/07/30 01:00:36;;;;;;;10.80;4.15;;;14.90;99.90;;;;;;6299974;22;20011;-57
2021/07/30 01:03:03;;;;;;;12.73;3.88;;;14.90;99.90;;;;;;6299731;22;20080;-55
2021/07/30 01:05:30;;;;;;;9.80;4.25;;;14.90;99.90;;;;;;6301203;22;19999;-58
2021/07/30 01:07:57;;;;;;;21.33;4.97;;;15.00;99.90;;;;;;6300081;22;20063;-57
2021/07/30 01:10:23;;;;;;;6.82;4.25;;;14.90;99.90;;;;;;6300728;22;20003;-61
2021/07/30 01:12:48;;;;;;;12.95;4.82;;;14.90;99.90;;;;;;6301789;22;20035;-59
2021/07/30 01:15:14;;;;;;;12.02;4.25;;;14.80;99.90;;;;;;6301055;22;20030;-53
2021/07/30 01:17:39;;;;;;;12.98;4.47;;;14.80;99.90;;;;;;6303156;22;19999;-59
2021/07/30 01:20:06;;;;;;;12.43;4.50;;;14.80;99.90;;;;;;6303590;22;20017;-60
2021/07/30 01:22:37;;;;;;;10.40;4.95;;;14.70;99.90;;;;;;6300765;22;20000;-58
2021/07/30 01:25:03;;;;;;;13.45;4.82;;;14.70;99.90;;;;;;6300191;22;19999;-59
2021/07/30 01:27:29;;;;;;;10.40;4.95;;;14.60;99.90;;;;;;6300182;22;20082;-57
2021/07/30 01:29:54;;;;;;;17.95;6.50;;;14.60;99.90;;;;;;6300944;22;19999;-56
2021/07/30 01:32:20;;;;;;;7.35;4.38;;;14.50;99.90;;;;;;6299460;22;20016;-59
2021/07/30 01:34:47;;;;;;;12.38;4.60;;;14.40;99.90;;;;;;6299730;22;20078;-58
2021/07/30 01:37:12;;;;;;;6.85;4.82;;;14.40;99.90;;;;;;6299325;22;20483;-58
2021/07/30 01:39:38;;;;;;;8.13;4.43;;;14.50;99.90;;;;;;6299065;22;19999;-55
2021/07/30 01:42:05;;;;;;;8.68;4.25;;;14.50;99.90;;;;;;6299361;22;20007;-60
2021/07/30 01:44:30;;;;;;;10.50;4.53;;;14.50;99.90;;;;;;6299580;22;20082;-54
2021/07/30 01:46:56;;;;;;;9.80;4.57;;;14.50;99.90;;;;;;6299183;22;20031;-57
2021/07/30 01:49:22;;;;;;;8.27;4.53;;;14.50;99.90;;;;;;6300263;22;20003;-59
2021/07/30 01:51:47;;;;;;;7.90;4.70;;;14.60;99.90;;;;;;6300740;22;20003;-59
2021/07/30 01:54:16;;;;;;;10.75;4.45;;;14.70;99.90;;;;;;6299481;22;19999;-61
2021/07/30 01:56:42;;;;;;;8.52;4.13;;;14.70;99.90;;;;;;6299504;22;20423;-61
2021/07/30 01:59:09;;;;;;;7.82;4.00;;;14.80;99.90;;;;;;6299179;22;20336;-58
2021/07/30 02:01:34;;;;;;;9.25;4.88;;;14.90;99.90;;;;;;6299705;22;20018;-58
2021/07/30 02:04:00;;;;;;;8.02;3.95;;;14.90;99.90;;;;;;6299295;22;20007;-60
2021/07/30 02:06:26;;;;;;;7.28;4.00;;;15.00;99.90;;;;;;6299643;22;20343;-58
2021/07/30 02:08:51;;;;;;;6.50;3.90;;;15.00;99.90;;;;;;6298911;22;20003;-59
2021/07/30 02:11:17;;;;;;;8.75;4.18;;;15.00;99.90;;;;;;6299774;22;20014;-59
2021/07/30 02:16:27;;;;;;;8.00;3.35;;;15.10;99.90;;;;;;6299471;22;20006;-59
2021/07/30 02:18:52;;;;;;;8.88;3.67;;;15.20;99.90;;;;;;6299241;22;20490;-59
2021/07/30 02:21:18;;;;;;;4.70;3.80;;;15.20;99.90;;;;;;6299449;22;20003;-54
2021/07/30 02:23:45;;;;;;;8.45;3.53;;;15.10;99.90;;;;;;6300649;22;20070;-57
2021/07/30 02:26:11;;;;;;;5.40;3.92;;;15.10;99.90;;;;;;6299282;22;19999;-61
2021/07/30 02:28:36;;;;;;;10.55;4.07;;;15.10;99.90;;;;;;6298755;22;20007;-60
2021/07/30 02:31:02;;;;;;;10.95;4.95;;;15.00;99.90;;;;;;6300483;22;20109;-60
2021/07/30 02:33:28;;;;;;;10.02;4.45;;;14.90;99.90;;;;;;6300571;22;20006;-61
2021/07/30 02:35:53;;;;;;;10.30;4.35;;;14.90;99.90;;;;;;6300519;22;20003;-63
2021/07/30 02:38:19;;;;;;;8.85;4.22;;;14.80;99.90;;;;;;6299306;22;20003;-62
2021/07/30 02:40:44;;;;;;;4.68;3.88;;;14.80;99.90;;;;;;6298665;22;20393;-58
2021/07/30 02:43:10;;;;;;;11.75;4.25;;;14.70;99.90;;;;;;6299463;22;20007;-59
2021/07/30 02:45:35;;;;;;;10.38;3.83;;;14.70;99.90;;;;;;6272401;22;20334;-60
2021/07/30 02:48:01;;;;;;;8.70;4.35;;;14.60;99.90;;;;;;6299651;22;20026;-61
2021/07/30 02:50:26;;;;;;;8.68;4.25;;;14.60;99.90;;;;;;6299385;22;20453;-60
2021/07/30 02:52:52;;;;;;;9.10;3.97;;;14.60;99.90;;;;;;6299549;22;20698;-61
2021/07/30 02:55:17;;;;;;;9.23;4.20;;;14.50;99.90;;;;;;6298567;22;19999;-60
2021/07/30 02:57:46;;;;;;;9.68;5.38;;;14.40;99.90;;;;;;6299804;22;20570;-59
2021/07/30 03:00:12;;;;;;;10.77;4.32;;;14.40;99.90;;;;;;6298239;22;20023;-54
2021/07/30 03:02:38;;;;;;;7.40;4.40;;;14.30;99.90;;;;;;6299069;22;20494;-59
2021/07/30 03:05:04;;;;;;;7.43;3.95;;;14.30;99.90;;;;;;6297967;22;20034;-55
2021/07/30 03:07:30;;;;;;;10.27;4.72;;;14.30;99.90;;;;;;6299297;22;20007;-55
2021/07/30 03:09:55;;;;;;;7.82;4.35;;;14.30;99.90;;;;;;6299020;22;20007;-59
2021/07/30 03:12:21;;;;;;;9.93;5.28;;;14.20;99.90;;;;;;6298503;22;20066;-62
2021/07/30 03:14:47;;;;;;;12.52;4.97;;;14.10;99.90;;;;;;6299172;22;20342;-59
2021/07/30 03:17:12;;;;;;;9.75;4.35;;;14.10;99.90;;;;;;6298861;22;20056;-59
2021/07/30 03:19:38;;;;;;;10.18;5.10;;;14.00;99.90;;;;;;6298318;22;20003;-57
2021/07/30 03:22:04;;;;;;;9.80;4.38;;;13.90;99.90;;;;;;6299433;22;20011;-61
2021/07/30 03:24:29;;;;;;;10.85;4.80;;;13.90;99.90;;;;;;6298751;22;20076;-60
2021/07/30 03:26:55;;;;;;;8.10;4.60;;;13.80;99.90;;;;;;6298571;22;20003;-61
2021/07/30 03:29:21;;;;;;;12.30;4.90;;;13.80;99.90;;;;;;6299305;22;20007;-58
2021/07/30 03:31:47;;;;;;;10.65;5.07;;;13.80;99.90;;;;;;6298874;22;20007;-60
2021/07/30 03:34:14;;;;;;;9.88;5.57;;;13.70;99.90;;;;;;6298559;22;19999;-55
2021/07/30 03:36:40;;;;;;;9.55;5.40;;;13.70;99.90;;;;;;6298734;22;20049;-61
2021/07/30 03:39:06;;;;;;;9.07;4.70;;;13.60;99.90;;;;;;6300049;22;20011;-60
2021/07/30 03:41:32;;;;;;;7.07;4.82;;;13.60;99.90;;;;;;6298528;22;20781;-55
2021/07/30 03:43:57;;;;;;;8.52;5.00;;;13.60;99.90;;;;;;6298278;22;20004;-58
2021/07/30 03:46:23;;;;;;;14.32;5.03;;;13.60;99.90;;;;;;6298505;22;20007;-57
2021/07/30 03:48:48;;;;;;;11.48;5.43;;;13.60;99.90;;;;;;6298313;22;20366;-61
2021/07/30 03:51:14;;;;;;;14.02;5.60;;;13.60;99.90;;;;;;6299058;22;20053;-58
2021/07/30 03:53:39;;;;;;;14.32;5.85;;;13.60;99.90;;;;;;6299496;22;20019;-55
2021/07/30 03:56:15;;;;;;;11.45;5.40;;;13.60;99.90;;;;;;6299054;22;19996;-60
2021/07/30 03:58:42;;;;;;;11.95;5.32;;;13.60;99.90;;;;;;6297713;22;20011;-60
2021/07/30 04:01:08;;;;;;;12.02;5.50;;;13.60;99.90;;;;;;6298588;22;20060;-56
2021/07/30 04:03:35;;;;;;;8.18;4.82;;;13.60;99.90;;;;;;6299506;22;20078;-59
2021/07/30 04:06:04;;;;;;;14.30;5.80;;;13.60;99.90;;;;;;6300055;22;20004;-56
2021/07/30 04:08:32;;;;;;;9.68;5.78;;;13.50;99.90;;;;;;6301423;22;20007;-56
2021/07/30 04:10:58;;;;;;;13.77;5.55;;;13.50;99.90;;;;;;6301244;22;20007;-59
2021/07/30 04:13:24;;;;;;;16.00;5.80;;;13.60;99.90;;;;;;6300147;22;20003;-58
2021/07/30 04:15:50;;;;;;;10.27;5.70;;;13.50;99.90;;;;;;6300065;22;20008;-59
2021/07/30 04:18:15;;;;;;;9.15;5.28;;;13.50;99.90;;;;;;6300966;22;20026;-55
2021/07/30 04:20:41;;;;;;;7.80;5.30;;;13.50;99.90;;;;;;6300473;22;20007;-54
2021/07/30 04:23:07;;;;;;;12.43;5.35;;;13.60;99.90;;;;;;6300168;22;20435;-54
2021/07/30 04:25:32;;;;;;;14.50;6.25;;;13.50;99.90;;;;;;6300685;22;20339;-58
2021/07/30 04:27:58;;;;;;;21.52;6.85;;;13.60;99.90;;;;;;6301048;22;20078;-55
2021/07/30 04:30:24;;;;;;;11.32;5.68;;;13.60;99.90;;;;;;6300329;22;20033;-57
2021/07/30 04:32:50;;;;;;;13.77;6.65;;;13.60;99.90;;;;;;6300283;22;19999;-61
2021/07/30 04:35:16;;;;;;;14.35;6.20;;;13.60;99.90;;;;;;6300393;22;20003;-59
2021/07/30 04:37:41;;;;;;;11.45;6.28;;;13.60;99.90;;;;;;6300694;22;20447;-53
2021/07/30 04:40:07;;;;;;;12.63;6.43;;;13.70;99.90;;;;;;6301428;22;20003;-58
2021/07/30 04:42:33;;;;;;;15.60;5.60;;;13.70;99.90;;;;;;6300841;22;20002;-63
2021/07/30 04:44:58;;;;;;;11.00;6.32;;;13.80;99.90;;;;;;6299595;22;19995;-60
2021/07/30 04:47:24;;;;;;;14.50;6.35;;;13.80;99.90;;;;;;6299804;22;20027;-60
2021/07/30 04:49:50;;;;;;;13.45;6.05;;;13.80;99.90;;;;;;6300120;22;19999;-61
2021/07/30 04:52:15;;;;;;;10.25;6.50;;;13.80;99.90;;;;;;6300275;22;20034;-58
2021/07/30 04:54:41;;;;;;;9.63;6.30;;;13.90;99.90;;;;;;6300965;22;20335;-57
2021/07/30 04:57:09;;;;;;;13.35;6.63;;;13.90;99.90;;;;;;6301314;22;20007;-54
2021/07/30 04:59:35;;;;;;;12.95;6.85;;;13.90;99.90;;;;;;6302198;22;20011;-60
2021/07/30 05:02:01;;;;;;;13.30;6.50;;;14.00;99.90;;;;;;6300944;22;20038;-60
2021/07/30 05:04:26;;;;;;;14.98;6.40;;;14.00;99.90;;;;;;6300309;22;20007;-62
2021/07/30 05:06:52;;;;;;;14.95;6.45;;;14.10;99.90;;;;;;6298190;22;20448;-63
2021/07/30 05:09:18;;;;;;;14.85;5.70;;;14.10;99.90;;;;;;6300990;22;20013;-61
2021/07/30 05:11:43;;;;;;;13.75;6.20;;;14.20;99.90;;;;;;6300424;22;20790;-61
2021/07/30 05:14:09;;;;;;;9.82;6.30;;;14.20;99.90;;;;;;6299410;22;20006;-62
2021/07/30 05:16:35;;;;;;;11.82;6.55;;;14.30;99.90;;;;;;6299637;22;20006;-62
2021/07/30 05:19:00;;;;;;;17.65;6.88;;;14.30;99.90;;;;;;6301869;22;20109;-61
2021/07/30 05:21:26;;;;;;;14.05;6.28;;;14.40;99.90;;;;;;6299717;22;20034;-63
2021/07/30 05:23:52;;;;;;;14.02;6.38;;;14.40;99.90;;;;;;6299883;22;20025;-62
2021/07/30 05:26:17;;;;;;;23.40;7.85;;;14.50;99.90;;;;;;6302669;22;20007;-63
2021/07/30 05:28:43;;;;;;;11.88;7.57;;;14.40;99.90;;;;;;6302427;22;20007;-61
2021/07/30 05:31:14;;;;;;;14.70;7.60;;;14.50;99.90;;;;;;6299226;22;20007;-58
2021/07/30 05:33:40;;;;;;;12.80;6.90;;;14.50;99.90;;;;;;6300082;22;20423;-62
2021/07/30 05:36:05;;;;;;;13.32;7.35;;;14.50;99.90;;;;;;6299266;22;20017;-62
2021/07/30 05:38:31;;;;;;;12.20;7.60;;;14.60;99.90;;;;;;6296455;22;20643;-61
2021/07/30 05:40:57;;;;;;;14.07;7.05;;;14.60;99.90;;;;;;6297294;22;20331;-63
2021/07/30 05:43:22;;;;;;;16.17;6.70;;;14.70;99.90;;;;;;6294976;22;20068;-62
2021/07/30 05:45:48;;;;;;;14.77;6.50;;;14.80;99.90;;;;;;6297458;22;20080;-61
2021/07/30 05:48:13;;;;;;;10.52;6.43;;;14.80;99.90;;;;;;6298629;22;20003;-60
2021/07/30 05:50:39;;;;;;;18.95;6.70;;;14.80;99.90;;;;;;6299920;22;20030;-62
2021/07/30 05:53:04;;;;;;;16.80;6.65;;;14.90;99.90;;;;;;6299917;22;20070;-64
2021/07/30 05:55:30;;;;;;;14.63;7.00;;;15.00;99.90;;;;;;6299301;22;20034;-62
2021/07/30 05:57:57;;;;;;;11.20;6.78;;;15.10;99.90;;;;;;6300406;22;20402;-62
2021/07/30 06:00:23;;;;;;;12.70;6.65;;;15.10;99.90;;;;;;6299336;22;20070;-63
2021/07/30 06:02:48;;;;;;;12.93;6.65;;;15.20;99.90;;;;;;6298932;22;20006;-62
2021/07/30 06:05:14;;;;;;;13.80;6.18;;;15.30;99.90;;;;;;6300214;22;20407;-61
2021/07/30 06:07:39;;;;;;;11.35;5.85;;;15.30;99.90;;;;;;6299479;22;20498;-64
2021/07/30 06:10:05;;;;;;;14.07;6.43;;;15.40;99.90;;;;;;6300229;22;20436;-61
2021/07/30 06:12:31;;;;;;;15.88;5.85;;;15.50;99.90;;;;;;6300010;22;20043;-62
2021/07/30 06:14:56;;;;;;;18.15;6.90;;;15.50;99.90;;;;;;6301538;22;19999;-63
2021/07/30 06:17:22;;;;;;;12.73;5.90;;;15.60;99.90;;;;;;6303612;22;20013;-62
2021/07/30 06:19:47;;;;;;;12.43;6.70;;;15.70;99.90;;;;;;6303813;22;20034;-61
2021/07/30 06:22:13;;;;;;;8.85;5.28;;;15.80;99.90;;;;;;6302979;22;20003;-63
2021/07/30 06:24:39;;;;;;;13.80;5.95;;;15.90;99.90;;;;;;6303976;22;20034;-62
2021/07/30 06:27:05;;;;;;;12.48;5.75;;;16.00;99.90;;;;;;6303022;22;20021;-63
2021/07/30 06:29:31;;;;;;;13.40;5.60;;;16.10;99.90;;;;;;6301228;22;20045;-63
2021/07/30 06:31:56;;;;;;;11.82;5.53;;;16.10;99.90;;;;;;6300053;22;20011;-63
2021/07/30 06:34:22;;;;;;;9.10;4.97;;;16.20;99.90;;;;;;6272200;22;20014;-61
2021/07/30 06:36:53;;;;;;;12.63;4.70;;;16.30;99.90;;;;;;6299411;22;20079;-61
2021/07/30 06:39:19;;;;;;;11.00;4.90;;;16.40;99.90;;;;;;6300459;22;20010;-62
2021/07/30 06:41:44;;;;;;;13.43;5.00;;;16.50;99.90;;;;;;6300176;22;20106;-61
2021/07/30 06:44:10;;;;;;;9.82;4.63;;;16.60;99.90;;;;;;6302329;22;20003;-62
2021/07/30 06:46:36;;;;;;;9.88;4.57;;;16.70;99.90;;;;;;6300393;22;20007;-61
2021/07/30 06:49:01;;;;;;;12.23;4.00;;;16.80;99.90;;;;;;6271758;22;20339;-62
2021/07/30 06:51:27;;;;;;;10.18;4.25;;;16.90;99.90;;;;;;6299984;22;20010;-64
2021/07/30 06:53:52;;;;;;;10.52;4.20;;;16.90;99.90;;;;;;6297096;22;20014;-63
2021/07/30 06:56:18;;;;;;;6.40;3.70;;;17.00;99.90;;;;;;6298276;22;20003;-63
2021/07/30 06:58:44;;;;;;;5.78;3.67;;;17.10;99.90;;;;;;6297504;22;20010;-63
2021/07/30 07:01:10;;;;;;;7.75;4.20;;;17.20;99.90;;;;;;6298254;22;20007;-62
2021/07/30 07:03:35;;;;;;;8.60;3.85;;;17.20;99.90;;;;;;6298863;22;20084;-60
2021/07/30 07:06:01;;;;;;;9.15;4.57;;;17.30;99.90;;;;;;6301208;22;20435;-62
2021/07/30 07:08:26;;;;;;;11.80;3.95;;;17.30;99.90;;;;;;6299163;22;20000;-62
2021/07/30 07:10:52;;;;;;;11.65;4.55;;;17.40;99.90;;;;;;6299756;22;20010;-61
2021/07/30 07:13:18;;;;;;;11.00;4.88;;;17.40;99.90;;;;;;6298975;22;20010;-62
2021/07/30 07:15:44;;;;;;;12.93;4.07;;;17.50;99.90;;;;;;6299649;22;20327;-61
2021/07/30 07:18:11;;;;;;;7.88;3.50;;;17.60;99.90;;;;;;6298503;22;19999;-63
2021/07/30 07:20:36;;;;;;;6.85;3.85;;;17.70;99.90;;;;;;6298880;22;20003;-63
2021/07/30 07:23:02;;;;;;;6.15;3.78;;;17.70;99.90;;;;;;6298559;22;20074;-63
2021/07/30 07:25:28;;;;;;;12.23;3.55;;;17.80;99.90;;;;;;6298677;22;20007;-63
2021/07/30 07:27:53;;;;;;;6.88;3.42;;;18.00;99.90;;;;;;6299110;22;20376;-60
2021/07/30 07:30:19;;;;;;;9.30;3.22;;;18.20;99.90;;;;;;6299925;22;20337;-62
2021/07/30 07:32:46;;;;;;;7.57;3.33;;;18.30;99.90;;;;;;6298851;22;20009;-59
2021/07/30 07:35:11;;;;;;;10.02;3.35;;;18.40;99.90;;;;;;6298251;22;20104;-63
2021/07/30 07:37:37;;;;;;;7.97;3.20;;;18.60;99.90;;;;;;6297905;22;20926;-60
2021/07/30 07:40:04;;;;;;;11.68;3.35;;;18.60;99.90;;;;;;6300242;22;20320;-60
2021/07/30 07:42:30;;;;;;;9.32;3.08;;;18.70;99.90;;;;;;6300957;22;19995;-62
2021/07/30 07:44:56;;;;;;;6.35;3.28;;;18.70;99.90;;;;;;6273525;22;20086;-62
2021/07/30 07:47:21;;;;;;;8.85;3.58;;;18.80;99.90;;;;;;6301408;22;20532;-63
2021/07/30 07:49:47;;;;;;;8.38;2.90;;;18.90;99.90;;;;;;6300519;22;20006;-60
2021/07/30 07:52:12;;;;;;;14.50;3.65;;;19.00;99.90;;;;;;6301025;22;20053;-62
2021/07/30 07:54:38;;;;;;;13.68;3.40;;;19.10;99.90;;;;;;6301124;22;20003;-61
2021/07/30 07:57:05;;;;;;;5.88;3.10;;;19.30;99.90;;;;;;6299718;22;20068;-61
2021/07/30 07:59:36;;;;;;;7.72;2.88;;;19.40;99.90;;;;;;6301081;22;20010;-60
2021/07/30 08:02:04;;;;;;;6.60;2.85;;;19.50;99.90;;;;;;6303852;22;20007;-63
2021/07/30 08:04:31;;;;;;;8.60;3.05;;;19.60;99.90;;;;;;6302955;22;20078;-60
2021/07/30 08:06:56;;;;;;;9.00;3.05;;;19.70;99.90;;;;;;6301967;22;20008;-60
2021/07/30 08:09:22;;;;;;;14.98;2.85;;;19.80;99.90;;;;;;6305056;22;20056;-59
2021/07/30 08:11:47;;;;;;;10.73;2.83;;;19.80;99.90;;;;;;6304829;22;20007;-62
2021/07/30 08:14:13;;;;;;;5.80;2.28;;;19.90;99.90;;;;;;6302702;22;20034;-60
2021/07/30 08:16:38;;;;;;;6.72;2.90;;;20.00;99.90;;;;;;6302871;22;19999;-64
2021/07/30 08:19:04;;;;;;;5.13;2.40;;;20.20;99.90;;;;;;6300917;22;20037;-61
2021/07/30 08:21:30;;;;;;;11.95;2.47;;;20.40;99.90;;;;;;6300930;22;20004;-62
2021/07/30 08:23:56;;;;;;;5.00;3.20;;;20.50;99.90;;;;;;6303241;22;20017;-60
2021/07/30 08:26:22;;;;;;;9.43;3.00;;;20.60;99.90;;;;;;6303738;22;20003;-63
2021/07/30 08:28:48;;;;;;;6.10;2.70;;;20.60;99.90;;;;;;6305202;22;20071;-59
2021/07/30 08:31:21;;;;;;;9.93;2.70;;;20.70;99.90;;;;;;6303613;22;20532;-61
2021/07/30 08:33:47;;;;;;;11.40;2.90;;;20.80;99.90;;;;;;6304986;22;20064;-63
2021/07/30 08:36:12;;;;;;;7.10;2.40;;;20.90;99.90;;;;;;6304250;22;20431;-61
2021/07/30 08:38:38;;;;;;;6.68;2.42;;;21.10;99.90;;;;;;6304915;22;20009;-61
2021/07/30 08:41:03;;;;;;;7.78;2.50;;;21.10;99.90;;;;;;6304806;22;20007;-61
2021/07/30 08:43:29;;;;;;;13.00;2.70;;;21.30;99.90;;;;;;6305101;22;20685;-63
2021/07/30 08:45:54;;;;;;;6.18;2.75;;;21.40;99.90;;;;;;6304240;22;20014;-61
2021/07/30 08:48:20;;;;;;;6.43;2.45;;;21.40;99.90;;;;;;6304257;22;20014;-60
2021/07/30 08:50:47;;;;;;;5.38;2.78;;;21.50;99.90;;;;;;6303900;22;20014;-61
2021/07/30 08:53:20;;;;;;;8.93;2.58;;;21.60;99.90;;;;;;6303762;22;19995;-60
2021/07/30 08:55:46;;;;;;;8.75;2.80;;;21.70;99.90;;;;;;6303940;22;20003;-63
2021/07/30 08:58:14;;;;;;;5.60;2.40;;;21.80;99.90;;;;;;6303847;22;20026;-62
2021/07/30 09:00:39;;;;;;;14.25;3.25;;;21.90;99.90;;;;;;6303734;22;20634;-62
2021/07/30 09:03:05;;;;;;;7.32;2.40;;;22.00;99.90;;;;;;6304077;22;20023;-62
2021/07/30 09:05:32;;;;;;;7.22;2.58;;;22.10;99.90;;;;;;6304683;22;20030;-62
2021/07/30 09:08:05;;;;;;;11.02;2.70;;;22.20;99.90;;;;;;6304629;22;20004;-61
2021/07/30 09:10:41;;;;;;;5.82;2.65;;;22.30;99.90;;;;;;6304555;22;20003;-63
2021/07/30 09:13:26;;;;;;;5.93;2.50;;;22.50;99.90;;;;;;6303475;22;20053;-62
2021/07/30 09:16:07;;;;;;;9.50;2.58;;;22.70;99.90;;;;;;6276117;22;19999;-63
2021/07/30 09:18:38;;;;;;;12.20;3.22;;;22.90;99.90;;;;;;6301956;22;20376;-63
2021/07/30 09:21:32;;;;;;;10.38;3.00;;;23.00;99.90;;;;;;6301063;22;20082;-63
2021/07/30 09:24:05;;;;;;;8.15;2.40;;;23.20;99.90;;;;;;6300485;22;20098;-63
2021/07/30 09:26:56;;;;;;;4.75;2.40;;;23.20;99.90;;;;;;6300638;22;20078;-62
2021/07/30 09:29:25;;;;;;;4.85;2.10;;;23.40;99.90;;;;;;6299759;22;20057;-60
2021/07/30 09:32:00;;;;;;;6.28;2.45;;;23.60;99.90;;;;;;6299908;22;20003;-61
2021/07/30 09:34:27;;;;;;;4.43;2.45;;;23.50;99.90;;;;;;6300762;22;20011;-63
2021/07/30 09:37:09;;;;;;;9.45;2.60;;;23.60;99.90;;;;;;6302250;22;20026;-60
2021/07/30 09:39:35;;;;;;;9.23;3.15;;;23.60;99.90;;;;;;6301594;22;20003;-61
2021/07/30 09:42:14;;;;;;;4.65;2.40;;;23.60;99.90;;;;;;6299719;22;20000;-60
2021/07/30 09:45:00;;;;;;;3.67;2.65;;;23.50;99.90;;;;;;6300526;22;19999;-60
2021/07/30 09:47:33;;;;;;;7.85;2.92;;;23.50;99.90;;;;;;6271959;22;20019;-62
2021/07/30 09:50:00;;;;;;;15.25;3.35;;;23.50;99.90;;;;;;6300460;22;19999;-62
2021/07/30 09:52:27;;;;;;;7.85;2.78;;;23.40;99.90;;;;;;6299519;22;20438;-63
2021/07/30 09:54:54;;;;;;;8.93;2.72;;;23.40;99.90;;;;;;6299988;22;20003;-61
2021/07/30 09:57:25;;;;;;;6.10;2.42;;;23.30;99.90;;;;;;6300232;22;20069;-62
2021/07/30 09:59:55;;;;;;;3.40;2.40;;;23.30;99.90;;;;;;6302074;22;20153;-62
2021/07/30 10:02:21;;;;;;;6.18;3.00;;;23.20;99.90;;;;;;6299286;22;20007;-63
2021/07/30 10:04:51;;;;;;;4.53;2.47;;;23.10;99.90;;;;;;6301593;22;20007;-62
2021/07/30 10:07:22;;;;;;;6.80;2.58;;;23.20;99.90;;;;;;6298742;22;20007;-63
2021/07/30 10:12:24;;;;;;;9.57;2.83;;;23.40;99.90;;;;;;6299750;22;20007;-63
2021/07/30 10:14:51;;;;;;;5.97;2.47;;;23.80;99.90;;;;;;6300735;22;20005;-61
2021/07/30 10:17:23;;;;;;;9.48;3.08;;;23.90;99.90;;;;;;6298957;22;20010;-61
2021/07/30 10:19:50;;;;;;;9.70;2.70;;;23.90;99.90;;;;;;6301261;22;20427;-59
2021/07/30 10:22:17;;;;;;;4.00;2.35;;;24.20;99.90;;;;;;6299476;22;20003;-63
2021/07/30 10:24:48;;;;;;;7.53;2.55;;;24.60;99.90;;;;;;6299189;22;20082;-60
2021/07/30 10:27:16;;;;;;;8.27;2.58;;;24.90;99.90;;;;;;6299498;22;20030;-62
2021/07/30 10:30:01;;;;;;;7.13;2.92;;;25.20;99.90;;;;;;6299954;22;20029;-63
2021/07/30 10:32:46;;;;;;;7.30;2.60;;;25.20;99.90;;;;;;6299706;22;20031;-62
2021/07/30 10:35:14;;;;;;;5.00;2.55;;;25.00;99.90;;;;;;6300652;22;19999;-64
2021/07/30 10:37:45;;;;;;;4.55;2.35;;;24.90;99.90;;;;;;6299777;22;20002;-62
2021/07/30 10:40:21;;;;;;;7.40;2.88;;;24.90;99.90;;;;;;6298893;22;20024;-63
2021/07/30 10:43:04;;;;;;;7.53;2.55;;;24.80;99.90;;;;;;6299256;22;19995;-63
2021/07/30 10:45:36;;;;;;;6.15;2.33;;;24.80;99.90;;;;;;6300934;22;19996;-62
2021/07/30 10:48:13;;;;;;;6.57;2.95;;;25.10;99.90;;;;;;6299560;22;20003;-61
2021/07/30 10:50:44;;;;;;;7.75;3.28;;;25.50;99.90;;;;;;6299798;22;19999;-62
2021/07/30 10:53:38;;;;;;;6.03;2.80;;;25.70;99.90;;;;;;6298337;22;20132;-62
2021/07/30 10:56:06;;;;;;;9.65;3.47;;;25.50;99.90;;;;;;6286691;22;20003;-62
2021/07/30 10:58:43;;;;;;;9.57;3.00;;;25.30;99.90;;;;;;6298866;22;19999;-63
2021/07/30 11:01:15;;;;;;;7.90;2.95;;;25.00;99.90;;;;;;6291910;22;20019;-59
2021/07/30 11:03:52;;;;;;;6.70;3.00;;;25.30;99.90;;;;;;6298420;22;20003;-58
2021/07/30 11:06:22;;;;;;;3.83;2.83;;;25.70;99.90;;;;;;6299836;22;20073;-58
2021/07/30 11:09:00;;;;;;;5.70;2.53;;;26.00;99.90;;;;;;6298909;22;19999;-58
2021/07/30 11:11:47;;;;;;;7.68;2.80;;;26.30;99.90;;;;;;6301444;22;20035;-57
2021/07/30 11:14:13;;;;;;;3.15;2.25;;;26.20;99.90;;;;;;6302541;22;20080;-56
2021/07/30 11:16:39;;;;;;;4.25;2.88;;;26.20;99.90;;;;;;6302779;22;20011;-55
2021/07/30 11:19:05;;;;;;;10.95;3.10;;;26.10;99.90;;;;;;6303857;22;20002;-58
2021/07/30 11:21:31;;;;;;;5.25;2.67;;;26.10;99.90;;;;;;6303138;22;20011;-57
2021/07/30 11:23:57;;;;;;;4.90;2.78;;;26.30;99.90;;;;;;6303048;22;20082;-57
2021/07/30 11:26:23;;;;;;;5.20;2.33;;;26.50;99.90;;;;;;6303141;22;20003;-58
2021/07/30 11:29:00;;;;;;;3.95;2.90;;;26.80;99.90;;;;;;6303481;22;20018;-57
2021/07/30 11:31:27;;;;;;;8.60;2.63;;;26.70;99.90;;;;;;6303704;22;20007;-58
2021/07/30 11:33:53;;;;;;;6.07;3.35;;;26.60;99.90;;;;;;6303056;22;20000;-59
2021/07/30 11:36:18;;;;;;;6.97;2.78;;;26.60;99.90;;;;;;6303090;22;20061;-58
2021/07/30 11:38:50;;;;;;;6.38;3.00;;;26.70;99.90;;;;;;6303143;22;20003;-60
2021/07/30 11:41:17;;;;;;;5.45;3.00;;;26.40;99.90;;;;;;6302793;22;20075;-61
2021/07/30 11:43:59;;;;;;;5.93;3.17;;;26.10;99.90;;;;;;6302703;22;20018;-60
2021/07/30 11:46:26;;;;;;;4.97;2.65;;;26.20;99.90;;;;;;6303208;22;20298;-60
2021/07/30 11:48:52;;;;;;;3.95;2.75;;;26.40;99.90;;;;;;6303291;22;20003;-58
2021/07/30 11:51:23;;;;;;;6.35;2.65;;;26.70;99.90;;;;;;6303048;22;20048;-58
2021/07/30 11:53:49;;;;;;;9.30;2.78;;;26.70;99.90;;;;;;6303375;22;20005;-57
2021/07/30 11:56:19;;;;;;;3.88;2.88;;;26.90;99.90;;;;;;6302305;22;20512;-57
2021/07/30 11:58:58;;;;;;;6.22;3.13;;;26.80;99.90;;;;;;6303332;22;20000;-58
2021/07/30 12:01:25;;;;;;;7.95;3.35;;;26.90;99.90;;;;;;6303019;22;20355;-61
2021/07/30 12:04:09;;;;;;;14.07;3.20;;;27.10;99.90;;;;;;6303089;22;20003;-61
2021/07/30 12:06:46;;;;;;;;;;;27.40;99.80;;;;;;6303496;22;20000;-60
2021/07/30 12:09:13;;;;;;;8.98;2.95;;;27.60;99.90;;;;;;6304144;22;19898;-58
2021/07/30 12:11:43;;;;;;;5.32;2.85;;;27.70;99.90;;;;;;6302907;22;20003;-59
2021/07/30 12:14:10;;;;;;;5.65;2.85;;;27.90;98.90;;;;;;6303710;22;19999;-60
2021/07/30 12:16:36;;;;;;;5.63;3.00;;;28.10;99.90;;;;;;6302610;22;20488;-60
2021/07/30 12:19:02;;;;;;;12.70;3.72;;;27.90;99.90;;;;;;6303262;22;20025;-60
2021/07/30 12:21:27;;;;;;;26.65;3.35;;;28.00;99.30;;;;;;6303138;22;20003;-61
2021/07/30 12:24:04;;;;;;;3.47;3.17;;;28.10;99.70;;;;;;6303447;22;20053;-61
2021/07/30 12:26:34;;;;;;;4.78;3.22;;;28.30;99.20;;;;;;6304637;22;20091;-61
2021/07/30 12:29:00;;;;;;;7.40;3.10;;;28.30;98.00;;;;;;6305177;22;20007;-60
2021/07/30 12:31:26;;;;;;;17.85;3.30;;;28.30;99.40;;;;;;6304844;22;20064;-61
2021/07/30 12:34:14;;;;;;;6.65;3.25;;;28.20;98.30;;;;;;6305756;22;19999;-60
2021/07/30 12:36:40;;;;;;;5.22;3.22;;;28.00;98.20;;;;;;6305015;22;20445;-59
2021/07/30 12:39:07;;;;;;;9.00;3.58;;;28.20;99.10;;;;;;6304840;22;20078;-60
2021/07/30 12:41:34;;;;;;;9.00;2.92;;;28.30;99.10;;;;;;6304884;22;20804;-61
2021/07/30 12:44:18;;;;;;;6.10;2.60;;;28.60;97.20;;;;;;6305213;22;20011;-61
2021/07/30 12:46:50;;;;;;;5.00;2.85;;;28.70;96.50;;;;;;6304483;22;20136;-60
2021/07/30 12:49:28;;;;;;;5.70;3.13;;;28.10;96.80;;;;;;6305227;22;20007;-60
2021/07/30 12:51:53;;;;;;;7.18;2.97;;;28.00;99.90;;;;;;6304806;22;20064;-61